createdAt,value
2018-04-22T00:01:13.958Z,21.87
2018-04-22T00:03:42.304Z,22.13
2018-04-22T00:06:11.283Z,22.40
2018-04-22T00:08:39.677Z,23.73
2018-04-22T00:11:07.895Z,24.80
2018-04-22T00:13:36.288Z,26.17
2018-04-22T00:16:04.569Z,28.70
2018-04-22T00:18:32.800Z,29.00
2018-04-22T00:21:01.020Z,26.87
2018-04-22T00:23:29.259Z,28.43
2018-04-22T00:25:57.580Z,29.17
2018-04-22T00:28:26.024Z,27.00
2018-04-22T00:30:54.418Z,27.53
2018-04-22T00:33:22.613Z,27.90
2018-04-22T00:35:50.853Z,29.37
2018-04-22T00:38:19.249Z,28.27
2018-04-22T00:40:47.512Z,26.77
2018-04-22T00:43:15.867Z,28.77
2018-04-22T00:45:44.200Z,30.13
2018-04-22T00:48:12.503Z,28.07
2018-04-22T00:50:40.765Z,25.53
2018-04-22T00:53:09.101Z,29.83
2018-04-22T00:55:37.355Z,28.07
2018-04-22T00:58:06.241Z,28.97
2018-04-22T01:00:34.954Z,27.53
2018-04-22T01:03:03.269Z,29.13
2018-04-22T01:05:31.536Z,28.23
2018-04-22T01:07:59.820Z,30.07
2018-04-22T01:10:28.040Z,29.80
2018-04-22T01:12:56.275Z,28.33
2018-04-22T01:15:24.507Z,29.10
2018-04-22T01:17:52.793Z,30.13
2018-04-22T01:20:21.006Z,27.07
2018-04-22T01:22:49.669Z,25.80
2018-04-22T01:25:18.166Z,27.60
2018-04-22T01:27:46.507Z,26.57
2018-04-22T01:30:15.759Z,26.13
2018-04-22T01:32:44.396Z,27.67
2018-04-22T01:35:12.648Z,28.20
2018-04-22T01:37:41.755Z,27.60
2018-04-22T01:40:10.006Z,25.10
2018-04-22T01:42:38.224Z,27.67
2018-04-22T01:45:06.550Z,26.37
2018-04-22T01:47:35.668Z,29.50
2018-04-22T01:50:03.866Z,28.30
2018-04-22T01:52:32.115Z,27.13
2018-04-22T01:55:01.131Z,27.43
2018-04-22T01:57:29.512Z,29.37
2018-04-22T02:00:00.257Z,27.73
2018-04-22T02:02:28.643Z,26.67
2018-04-22T02:04:56.980Z,27.00
2018-04-22T02:07:25.304Z,23.50
2018-04-22T02:09:53.540Z,25.30
2018-04-22T02:12:21.803Z,24.93
2018-04-22T02:14:50.103Z,28.00
2018-04-22T02:17:19.068Z,25.20
2018-04-22T02:19:47.375Z,24.17
2018-04-22T02:22:15.592Z,25.27
2018-04-22T02:24:43.913Z,27.77
2018-04-22T02:27:12.348Z,28.00
2018-04-22T02:29:40.652Z,27.47
2018-04-22T02:32:08.981Z,27.77
2018-04-22T02:34:37.205Z,28.13
2018-04-22T02:37:06.260Z,27.40
2018-04-22T02:39:34.532Z,28.50
2018-04-22T02:42:02.769Z,29.70
2018-04-22T02:44:31.896Z,28.57
2018-04-22T02:47:00.152Z,27.30
2018-04-22T02:49:28.480Z,28.30
2018-04-22T02:51:56.783Z,28.70
2018-04-22T02:54:25.797Z,26.80
2018-04-22T02:56:54.875Z,28.30
2018-04-22T02:59:23.076Z,30.13
2018-04-22T03:01:53.869Z,29.40
2018-04-22T03:04:22.094Z,28.10
2018-04-22T03:06:50.321Z,30.87
2018-04-22T03:09:18.623Z,31.30
2018-04-22T03:11:47.798Z,28.63
2018-04-22T03:14:16.215Z,28.73
2018-04-22T03:16:44.647Z,29.03
2018-04-22T03:19:12.871Z,29.57
2018-04-22T03:21:41.204Z,30.10
2018-04-22T03:24:09.416Z,29.93
2018-04-22T03:26:37.692Z,28.87
2018-04-22T03:29:06.858Z,30.07
2018-04-22T03:31:35.207Z,29.53
2018-04-22T03:34:05.837Z,30.23
2018-04-22T03:36:34.137Z,28.47
2018-04-22T03:39:03.099Z,29.13
2018-04-22T03:41:31.376Z,28.50
2018-04-22T03:43:59.749Z,29.00
2018-04-22T03:46:28.101Z,28.80
2018-04-22T03:48:57.203Z,28.57
2018-04-22T03:51:25.433Z,27.83
2018-04-22T03:53:53.743Z,25.83
2018-04-22T03:56:21.968Z,30.07
2018-04-22T03:58:50.261Z,28.60
2018-04-22T04:01:18.716Z,26.47
2018-04-22T04:03:46.960Z,28.57
2018-04-22T04:06:15.250Z,25.40
2018-04-22T04:08:43.623Z,27.53
2018-04-22T04:11:11.845Z,24.87
2018-04-22T04:13:40.080Z,27.13
2018-04-22T04:16:08.295Z,29.07
2018-04-22T04:19:11.097Z,29.33
2018-04-22T04:21:51.040Z,28.60
2018-04-22T04:24:40.167Z,25.47
2018-04-22T04:27:31.047Z,26.87
2018-04-22T04:30:00.049Z,26.70
2018-04-22T04:32:29.087Z,26.17
2018-04-22T04:34:57.377Z,31.43
2018-04-22T04:37:25.640Z,30.53
2018-04-22T04:39:54.340Z,32.73
2018-04-22T04:42:22.554Z,29.93
2018-04-22T04:44:50.899Z,33.70
2018-04-22T04:47:19.187Z,32.40
2018-04-22T04:49:47.548Z,32.87
2018-04-22T04:52:15.772Z,30.37
2018-04-22T04:54:44.056Z,35.47
2018-04-22T04:57:13.081Z,35.90
2018-04-22T04:59:41.384Z,38.67
2018-04-22T05:02:09.644Z,36.03
2018-04-22T05:04:37.851Z,37.77
2018-04-22T05:07:06.155Z,33.10
2018-04-22T05:09:34.595Z,32.73
2018-04-22T05:12:02.937Z,37.20
2018-04-22T05:14:31.232Z,36.40
2018-04-22T05:16:59.700Z,35.90
2018-04-22T05:19:27.904Z,36.77
2018-04-22T05:21:56.177Z,37.40
2018-04-22T05:24:24.441Z,35.37
2018-04-22T05:26:52.622Z,31.73
2018-04-22T05:29:20.939Z,30.43
2018-04-22T05:31:49.151Z,30.33
2018-04-22T05:34:17.407Z,29.60
2018-04-22T05:36:45.703Z,28.20
2018-04-22T05:39:13.972Z,28.37
2018-04-22T05:41:42.240Z,29.37
2018-04-22T05:44:11.475Z,31.00
2018-04-22T05:46:39.643Z,31.53
2018-04-22T05:49:07.928Z,30.40
2018-04-22T05:51:36.173Z,29.93
2018-04-22T05:54:04.512Z,30.67
2018-04-22T05:56:32.743Z,30.23
2018-04-22T05:59:01.184Z,30.33
2018-04-22T06:01:29.592Z,29.17
2018-04-22T06:03:58.100Z,29.90
2018-04-22T06:06:26.450Z,30.83
2018-04-22T06:08:54.725Z,29.87
2018-04-22T06:11:23.759Z,31.00
2018-04-22T06:13:52.074Z,33.40
2018-04-22T06:16:21.045Z,31.00
2018-04-22T06:18:50.118Z,32.27
2018-04-22T06:21:18.505Z,29.10
2018-04-22T06:23:46.753Z,28.77
2018-04-22T06:26:15.036Z,31.20
2018-04-22T06:28:43.363Z,32.03
2018-04-22T06:31:11.779Z,31.63
2018-04-22T06:33:40.042Z,31.63
2018-04-22T06:36:08.405Z,29.77
2018-04-22T06:38:36.732Z,29.97
2018-04-22T06:41:05.024Z,29.83
2018-04-22T06:43:33.352Z,28.33
2018-04-22T06:46:01.600Z,29.27
2018-04-22T06:48:30.591Z,28.43
2018-04-22T06:50:59.634Z,27.90
2018-04-22T06:53:27.857Z,26.87
2018-04-22T06:55:56.120Z,26.80
2018-04-22T06:58:24.441Z,26.00
2018-04-22T07:00:52.690Z,25.47
2018-04-22T07:03:21.731Z,24.67
2018-04-22T07:05:50.050Z,26.37
2018-04-22T07:10:52.897Z,26.87
2018-04-22T07:13:21.155Z,23.00
2018-04-22T07:15:49.388Z,22.63
2018-04-22T07:18:17.644Z,22.53
2018-04-22T07:20:45.937Z,23.50
2018-04-22T07:23:14.293Z,23.83
2018-04-22T07:25:42.557Z,19.13
2018-04-22T07:28:10.805Z,20.07
2018-04-22T07:30:39.765Z,18.30
2018-04-22T07:33:08.056Z,20.83
2018-04-22T07:35:36.283Z,21.13
2018-04-22T07:38:04.508Z,17.00
2018-04-22T07:40:32.832Z,18.97
2018-04-22T07:43:01.169Z,16.13
2018-04-22T07:45:29.609Z,14.47
2018-04-22T07:47:57.984Z,14.37
2018-04-22T07:50:26.271Z,14.17
2018-04-22T07:52:54.536Z,13.10
2018-04-22T07:55:25.388Z,14.67
2018-04-22T07:57:53.620Z,14.47
2018-04-22T08:00:21.902Z,13.47
2018-04-22T08:02:50.194Z,15.80
2018-04-22T08:05:18.518Z,13.37
2018-04-22T08:07:46.820Z,12.90
2018-04-22T08:10:16.732Z,13.17
2018-04-22T08:12:44.088Z,12.47
2018-04-22T08:15:12.396Z,12.00
2018-04-22T08:17:40.715Z,11.50
2018-04-22T08:20:08.995Z,11.93
2018-04-22T08:22:37.227Z,12.03
2018-04-22T08:25:05.497Z,9.97
2018-04-22T08:27:33.852Z,10.57
2018-04-22T08:30:02.827Z,11.80
2018-04-22T08:32:31.952Z,12.40
2018-04-22T08:35:01.091Z,11.63
2018-04-22T08:37:29.293Z,9.07
2018-04-22T08:39:58.331Z,12.13
2018-04-22T08:42:28.599Z,12.50
2018-04-22T08:44:56.847Z,11.83
2018-04-22T08:47:25.115Z,10.30
2018-04-22T08:49:53.371Z,12.57
2018-04-22T08:52:21.606Z,12.00
2018-04-22T08:54:50.280Z,11.90
2018-04-22T08:57:18.692Z,10.93
2018-04-22T08:59:47.016Z,10.77
2018-04-22T09:02:15.265Z,12.17
2018-04-22T09:04:43.604Z,11.33
2018-04-22T09:07:11.815Z,11.43
2018-04-22T09:09:40.124Z,12.10
2018-04-22T09:12:08.387Z,12.60
2018-04-22T09:14:36.683Z,10.90
2018-04-22T09:17:04.947Z,11.30
2018-04-22T09:19:33.218Z,12.50
2018-04-22T09:22:01.803Z,11.13
2018-04-22T09:24:30.044Z,11.60
2018-04-22T09:26:58.323Z,11.57
2018-04-22T09:29:26.627Z,11.30
2018-04-22T09:31:54.907Z,11.23
2018-04-22T09:34:23.143Z,9.90
2018-04-22T09:36:51.423Z,11.23
2018-04-22T09:39:19.729Z,10.80
2018-04-22T09:41:47.999Z,11.63
2018-04-22T09:44:16.279Z,9.93
2018-04-22T09:46:44.647Z,10.93
2018-04-22T09:49:13.719Z,9.57
2018-04-22T09:51:41.922Z,10.27
2018-04-22T09:54:10.212Z,10.30
2018-04-22T09:56:38.453Z,8.83
2018-04-22T09:59:06.730Z,9.20
2018-04-22T10:01:36.884Z,9.53
2018-04-22T10:04:11.013Z,8.70
2018-04-22T10:06:39.385Z,7.93
2018-04-22T10:09:07.608Z,8.40
2018-04-22T10:11:35.936Z,8.47
2018-04-22T10:14:04.263Z,9.10
2018-04-22T10:16:32.512Z,8.50
2018-04-22T10:19:01.555Z,8.47
2018-04-22T10:21:30.549Z,9.00
2018-04-22T10:23:58.824Z,8.20
2018-04-22T10:26:27.848Z,7.73
2018-04-22T10:28:58.777Z,7.00
2018-04-22T10:31:27.840Z,6.67
2018-04-22T10:33:56.936Z,7.30
2018-04-22T10:36:25.931Z,6.60
2018-04-22T10:38:54.299Z,6.00
2018-04-22T10:41:22.576Z,5.53
2018-04-22T10:43:51.573Z,5.70
2018-04-22T10:46:19.893Z,5.33
2018-04-22T10:48:48.782Z,5.90
2018-04-22T10:51:17.323Z,6.23
2018-04-22T10:53:45.590Z,6.27
2018-04-22T10:56:14.069Z,5.53
2018-04-22T10:58:42.287Z,4.77
2018-04-22T11:01:10.543Z,4.90
2018-04-22T11:03:39.539Z,4.47
2018-04-22T11:06:08.531Z,5.47
2018-04-22T11:08:37.535Z,4.80
2018-04-22T11:11:06.673Z,4.93
2018-04-22T11:13:34.967Z,6.00
2018-04-22T11:16:03.243Z,4.90
2018-04-22T11:18:31.563Z,5.10
2018-04-22T11:21:00.637Z,5.30
2018-04-22T11:23:29.258Z,5.07
2018-04-22T11:25:57.492Z,5.10
2018-04-22T11:28:25.717Z,4.90
2018-04-22T11:30:54.059Z,4.80
2018-04-22T11:33:22.786Z,4.70
2018-04-22T11:35:52.871Z,4.80
2018-04-22T11:38:21.600Z,5.10
2018-04-22T11:40:50.835Z,4.90
2018-04-22T11:43:20.665Z,4.70
2018-04-22T11:45:48.932Z,4.67
2018-04-22T11:48:17.265Z,5.67
2018-04-22T11:50:46.277Z,5.37
2018-04-22T11:53:14.526Z,5.20
2018-04-22T11:55:42.775Z,5.60
2018-04-22T11:58:11.022Z,4.67
2018-04-22T12:00:39.396Z,4.57
2018-04-22T12:03:07.591Z,5.17
2018-04-22T12:05:35.896Z,5.00
2018-04-22T12:08:05.040Z,4.83
2018-04-22T12:10:33.339Z,5.20
2018-04-22T12:13:01.795Z,5.40
2018-04-22T12:15:30.186Z,5.00
2018-04-22T12:17:58.485Z,4.50
2018-04-22T12:20:29.385Z,4.23
2018-04-22T12:22:58.232Z,4.47
2018-04-22T12:25:26.716Z,3.97
2018-04-22T12:27:55.061Z,4.20
2018-04-22T12:30:23.347Z,4.40
2018-04-22T12:32:51.764Z,4.00
2018-04-22T12:35:20.071Z,3.63
2018-04-22T12:37:48.267Z,4.50
2018-04-22T12:40:16.733Z,3.63
2018-04-22T12:42:47.479Z,4.53
2018-04-22T12:45:15.676Z,3.97
2018-04-22T12:47:43.868Z,4.27
2018-04-22T12:50:12.112Z,4.27
2018-04-22T12:52:40.358Z,4.13
2018-04-22T12:55:08.707Z,4.33
2018-04-22T12:57:37.989Z,4.60
2018-04-22T13:00:07.465Z,4.83
2018-04-22T13:02:35.711Z,4.20
2018-04-22T13:05:05.233Z,4.47
2018-04-22T13:07:33.944Z,4.30
2018-04-22T13:10:03.248Z,4.73
2018-04-22T13:12:31.702Z,4.20
2018-04-22T13:15:00.028Z,3.53
2018-04-22T13:17:28.518Z,3.80
2018-04-22T13:19:57.815Z,3.27
2018-04-22T13:22:27.222Z,3.20
2018-04-22T13:24:55.555Z,3.70
2018-04-22T13:27:23.956Z,3.27
2018-04-22T13:29:53.623Z,3.27
2018-04-22T13:32:22.030Z,2.80
2018-04-22T13:34:50.367Z,2.70
2018-04-22T13:37:18.855Z,2.50
2018-04-22T13:39:47.053Z,3.20
2018-04-22T13:42:15.355Z,2.67
2018-04-22T13:44:43.595Z,2.97
2018-04-22T13:47:11.862Z,2.70
2018-04-22T13:49:40.087Z,2.80
2018-04-22T13:52:08.454Z,3.10
2018-04-22T13:54:36.721Z,3.23
2018-04-22T13:57:04.976Z,3.10
2018-04-22T13:59:33.369Z,3.60
2018-04-22T14:02:01.633Z,2.70
2018-04-22T14:04:31.108Z,3.00
2018-04-22T14:07:00.107Z,2.27
2018-04-22T14:09:28.344Z,2.80
2018-04-22T14:11:56.858Z,2.40
2018-04-22T14:14:25.045Z,2.20
2018-04-22T14:16:53.305Z,2.30
2018-04-22T14:19:22.348Z,2.50
2018-04-22T14:21:50.624Z,2.03
2018-04-22T14:24:18.902Z,1.90
2018-04-22T14:26:47.420Z,2.10
2018-04-22T14:29:15.677Z,2.40
2018-04-22T14:31:43.948Z,2.00
2018-04-22T14:34:13.054Z,2.20
2018-04-22T14:36:41.377Z,2.22
2018-04-22T14:39:09.647Z,2.65
2018-04-22T14:41:38.730Z,2.40
2018-04-22T14:44:19.427Z,2.25
2018-04-22T14:46:47.807Z,2.20
2018-04-22T14:49:16.067Z,2.33
2018-04-22T14:51:44.392Z,2.30
2018-04-22T14:54:12.788Z,2.43
2018-04-22T14:56:41.157Z,2.70
2018-04-22T14:59:09.378Z,3.07
2018-04-22T15:01:37.614Z,2.73
2018-04-22T15:04:05.863Z,3.00
2018-04-22T15:06:35.446Z,3.00
2018-04-22T15:09:03.766Z,3.47
2018-04-22T15:11:32.163Z,2.93
2018-04-22T15:14:00.397Z,3.17
2018-04-22T15:16:28.641Z,3.33
2018-04-22T15:18:57.976Z,3.30
2018-04-22T15:21:26.208Z,3.50
2018-04-22T15:23:54.538Z,3.53
2018-04-22T15:26:22.836Z,3.33
2018-04-22T15:28:51.149Z,3.90
2018-04-22T15:31:21.375Z,3.33
2018-04-22T15:33:49.585Z,3.20
2018-04-22T15:36:17.830Z,3.60
2018-04-22T15:38:46.101Z,3.93
2018-04-22T15:41:15.072Z,3.30
2018-04-22T15:43:43.324Z,3.43
2018-04-22T15:46:11.622Z,3.20
2018-04-22T15:48:39.824Z,3.27
2018-04-22T15:51:08.852Z,3.57
2018-04-22T15:53:37.098Z,3.60
2018-04-22T15:56:06.088Z,3.60
2018-04-22T15:58:34.382Z,3.93
2018-04-22T16:01:02.713Z,3.60
2018-04-22T16:03:30.933Z,3.70
2018-04-22T16:05:59.496Z,3.50
2018-04-22T16:08:27.692Z,4.13
2018-04-22T16:10:57.381Z,3.77
2018-04-22T16:13:25.630Z,3.50
2018-04-22T16:15:53.935Z,3.83
2018-04-22T16:18:22.213Z,3.93
2018-04-22T16:20:50.387Z,4.27
2018-04-22T16:23:19.447Z,4.10
2018-04-22T16:25:47.723Z,3.87
2018-04-22T16:28:15.959Z,3.70
2018-04-22T16:30:44.303Z,4.60
2018-04-22T16:33:12.512Z,4.00
2018-04-22T16:35:40.791Z,4.00
2018-04-22T16:38:09.023Z,4.30
2018-04-22T16:40:37.358Z,4.60
2018-04-22T16:43:05.575Z,4.90
2018-04-22T16:45:33.895Z,5.57
2018-04-22T16:48:02.186Z,6.23
2018-04-22T16:50:30.511Z,4.67
2018-04-22T16:52:59.115Z,4.50
2018-04-22T16:55:28.163Z,4.13
2018-04-22T16:57:56.539Z,4.30
2018-04-22T17:00:24.893Z,4.43
2018-04-22T17:02:53.113Z,4.10
2018-04-22T17:05:22.160Z,4.33
2018-04-22T17:07:50.439Z,4.17
2018-04-22T17:10:18.688Z,4.20
2018-04-22T17:12:48.479Z,4.30
2018-04-22T17:15:16.688Z,4.70
2018-04-22T17:17:44.926Z,4.43
2018-04-22T17:20:13.176Z,4.20
2018-04-22T17:22:41.427Z,4.93
2018-04-22T17:25:09.796Z,4.70
2018-04-22T17:27:38.146Z,4.50
2018-04-22T17:30:06.559Z,5.07
2018-04-22T17:32:34.783Z,4.43
2018-04-22T17:35:02.996Z,4.30
2018-04-22T17:37:32.067Z,4.20
2018-04-22T17:40:00.493Z,4.57
2018-04-22T17:42:28.760Z,5.00
2018-04-22T17:44:57.131Z,5.00
2018-04-22T17:47:26.118Z,5.20
2018-04-22T17:49:54.317Z,5.20
2018-04-22T17:52:22.955Z,5.60
2018-04-22T17:54:51.150Z,5.50
2018-04-22T17:57:20.148Z,5.00
2018-04-22T17:59:49.195Z,5.30
2018-04-22T18:02:17.697Z,4.80
2018-04-22T18:04:45.936Z,4.43
2018-04-22T18:07:14.164Z,5.27
2018-04-22T18:09:42.439Z,4.63
2018-04-22T18:12:10.824Z,4.47
2018-04-22T18:14:39.637Z,4.73
2018-04-22T18:17:07.894Z,5.37
2018-04-22T18:19:36.983Z,5.50
2018-04-22T18:22:05.245Z,5.40
2018-04-22T18:24:33.832Z,5.17
2018-04-22T18:27:02.334Z,5.33
2018-04-22T18:29:30.595Z,5.60
2018-04-22T18:31:58.996Z,4.90
2018-04-22T18:34:27.239Z,5.40
2018-04-22T18:36:55.704Z,4.80
2018-04-22T18:39:24.540Z,5.33
2018-04-22T18:41:53.797Z,5.57
2018-04-22T18:44:22.188Z,5.53
2018-04-22T18:46:51.334Z,5.53
2018-04-22T18:49:19.571Z,5.67
2018-04-22T18:51:47.912Z,5.70
2018-04-22T18:54:16.292Z,5.73
2018-04-22T18:56:47.470Z,5.80
2018-04-22T18:59:15.819Z,5.87
2018-04-22T19:01:44.187Z,6.20
2018-04-22T19:04:13.088Z,5.60
2018-04-22T19:06:41.423Z,6.23
2018-04-22T19:09:10.486Z,5.47
2018-04-22T19:11:38.997Z,6.37
2018-04-22T19:14:07.429Z,5.60
2018-04-22T19:16:35.769Z,5.97
2018-04-22T19:19:04.156Z,6.03
2018-04-22T19:21:32.526Z,5.57
2018-04-22T19:24:00.837Z,5.87
2018-04-22T19:26:30.136Z,6.30
2018-04-22T19:28:58.440Z,5.87
2018-04-22T19:31:27.482Z,7.13
2018-04-22T19:33:56.323Z,6.50
2018-04-22T19:36:25.702Z,6.43
2018-04-22T19:38:54.683Z,6.73
2018-04-22T19:41:24.165Z,6.60
2018-04-22T19:43:53.189Z,6.60
2018-04-22T19:46:21.701Z,6.43
2018-04-22T19:48:50.604Z,7.00
2018-04-22T19:51:19.113Z,6.70
2018-04-22T19:53:48.503Z,7.43
2018-04-22T19:56:17.011Z,7.87
2018-04-22T19:58:45.372Z,7.40
2018-04-22T20:01:14.059Z,7.77
2018-04-22T20:03:42.360Z,7.37
2018-04-22T20:06:10.955Z,7.33
2018-04-22T20:08:39.283Z,8.00
2018-04-22T20:11:08.742Z,6.90
2018-04-22T20:13:36.935Z,7.60
2018-04-22T20:16:05.185Z,6.87
2018-04-22T20:18:34.279Z,7.17
2018-04-22T20:21:02.856Z,7.27
2018-04-22T20:23:31.136Z,8.10
2018-04-22T20:26:02.250Z,8.20
2018-04-22T20:28:30.880Z,7.03
2018-04-22T20:30:59.087Z,7.77
2018-04-22T20:33:27.467Z,7.40
2018-04-22T20:35:56.146Z,7.77
2018-04-22T20:38:24.359Z,7.30
2018-04-22T20:40:52.997Z,7.70
2018-04-22T20:43:21.327Z,8.30
2018-04-22T20:45:50.152Z,7.73
2018-04-22T20:48:18.520Z,8.30
2018-04-22T20:50:47.143Z,8.43
2018-04-22T20:53:15.730Z,7.93
2018-04-22T20:55:44.096Z,7.60
2018-04-22T20:58:12.496Z,7.53
2018-04-22T21:00:41.456Z,8.00
2018-04-22T21:03:10.094Z,8.30
2018-04-22T21:05:39.309Z,8.07
2018-04-22T21:08:08.214Z,8.30
2018-04-22T21:10:36.788Z,9.07
2018-04-22T21:13:05.047Z,8.17
2018-04-22T21:15:33.776Z,8.80
2018-04-22T21:18:02.644Z,8.20
2018-04-22T21:20:30.912Z,8.67
2018-04-22T21:22:59.204Z,8.97
2018-04-22T21:25:27.484Z,9.43
2018-04-22T21:27:55.728Z,9.67
2018-04-22T21:30:23.948Z,8.50
2018-04-22T21:32:52.319Z,9.03
2018-04-22T21:35:20.587Z,8.57
2018-04-22T21:37:48.945Z,8.23
2018-04-22T21:40:17.519Z,8.67
2018-04-22T21:42:46.001Z,8.10
2018-04-22T21:45:14.292Z,9.40
2018-04-22T21:47:42.576Z,9.13
2018-04-22T21:50:10.954Z,9.80
2018-04-22T21:52:39.229Z,9.40
2018-04-22T21:55:07.774Z,9.00
2018-04-22T21:57:36.746Z,9.07
2018-04-22T22:00:04.983Z,9.20
2018-04-22T22:02:33.336Z,9.20
2018-04-22T22:05:01.587Z,9.33
2018-04-22T22:07:29.782Z,9.90
2018-04-22T22:09:58.220Z,8.87
2018-04-22T22:12:26.549Z,9.40
2018-04-22T22:14:54.905Z,9.77
2018-04-22T22:17:23.207Z,9.20
2018-04-22T22:19:51.509Z,9.27
2018-04-22T22:22:19.761Z,9.40
2018-04-22T22:24:48.142Z,9.43
2018-04-22T22:27:16.433Z,8.87
2018-04-22T22:29:44.804Z,9.30
2018-04-22T22:32:13.104Z,9.10
2018-04-22T22:34:41.340Z,8.60
2018-04-22T22:37:09.876Z,9.03
2018-04-22T22:39:38.610Z,8.20
2018-04-22T22:42:06.860Z,8.57
2018-04-22T22:44:35.243Z,9.17
2018-04-22T22:47:03.593Z,9.30
2018-04-22T22:49:31.847Z,8.40
2018-04-22T22:52:00.169Z,8.23
2018-04-22T22:54:28.469Z,9.50
2018-04-22T22:56:57.452Z,9.10
2018-04-22T22:59:28.316Z,9.27
2018-04-22T23:01:56.657Z,9.17
2018-04-22T23:04:24.885Z,9.00
2018-04-22T23:06:53.134Z,8.97
2018-04-22T23:09:21.446Z,8.63
2018-04-22T23:11:49.680Z,8.93
2018-04-22T23:14:18.653Z,9.03
2018-04-22T23:16:46.892Z,9.70
2018-04-22T23:19:15.107Z,9.13
2018-04-22T23:21:44.254Z,9.87
2018-04-22T23:24:12.576Z,9.10
2018-04-22T23:26:40.814Z,9.20
2018-04-22T23:29:09.041Z,9.53
2018-04-22T23:31:37.463Z,9.67
2018-04-22T23:34:05.804Z,9.53
2018-04-22T23:36:34.985Z,9.77
2018-04-22T23:39:03.280Z,10.47
2018-04-22T23:41:31.603Z,9.30
2018-04-22T23:43:59.886Z,9.83
2018-04-22T23:46:28.333Z,10.20
2018-04-22T23:48:57.367Z,8.97
2018-04-22T23:51:26.035Z,9.63
2018-04-22T23:53:54.363Z,10.07
2018-04-22T23:56:23.433Z,9.73
2018-04-22T23:58:51.644Z,9.57
